EGUW

RAF Wattisham Airport

Stowmarket, United Kingdom
METAR EGUW 160550Z AUTO 23008KT 9999 FEW080/// BKN100/// 05/04 Q1005
Observed Flight Rules
Dec-16 @ 05:50 UTC (54 minutes ago) Visual Flight Rules
Wind Visibility Clouds
230° at 8 knots 10,000+ meters
  • Few at 8,000' AGL
  • Broken at 10,000' AGL
Temperatures Readings
Current 5°C / 41°F
Dewpoint 4°C / 39°F
Humidity 93%
Altimeter 29.68" Hg
Pressure 1005 hPa
Elevation 87
METAR EGUW 160550Z AUTO 23008KT 9999 FEW080/// BKN100/// 05/04 Q1005
Observed Flight Rules
Dec-16 @ 05:50 UTC
(54 minutes ago)
VFR
Wind Visibility
230° at 8 knots 10,000+ meters
Clouds
  • Few at 8,000' AGL
  • Broken at 10,000' AGL
Temperature Dewpoint
5°C / 41°F 4°C / 39°F
Humidity Altimeter Pressure
93% 29.68" Hg 1005 hPa